createdAt,value
2019-04-21T00:00:31.848Z,102568.57
2019-04-21T00:03:08.852Z,102567.20
2019-04-21T00:05:53.281Z,102567.74
2019-04-21T00:08:41.572Z,102568.66
2019-04-21T00:11:05.908Z,102565.78
2019-04-21T00:13:27.945Z,102564.66
2019-04-21T00:15:53.161Z,102562.50
2019-04-21T00:18:29.651Z,102564.00
2019-04-21T00:21:09.840Z,102562.67
2019-04-21T00:23:42.101Z,102556.47
2019-04-21T00:26:16.161Z,102558.12
2019-04-21T00:28:54.035Z,102552.63
2019-04-21T00:31:18.193Z,102551.85
2019-04-21T00:33:34.302Z,102545.28
2019-04-21T00:36:07.217Z,102552.56
2019-04-21T00:39:02.379Z,102548.67
2019-04-21T00:41:23.499Z,102540.88
2019-04-21T00:43:46.110Z,102543.73
2019-04-21T00:46:10.096Z,102535.30
2019-04-21T00:48:53.439Z,102537.69
2019-04-21T00:54:04.170Z,102549.23
2019-04-21T00:56:27.460Z,102548.31
2019-04-21T00:58:59.312Z,102540.19
2019-04-21T01:01:27.978Z,102544.67
2019-04-21T01:03:57.718Z,102545.04
2019-04-21T01:06:33.464Z,102539.86
2019-04-21T01:09:01.277Z,102539.13
2019-04-21T01:11:34.688Z,102533.45
2019-04-21T01:14:05.147Z,102529.12
2019-04-21T01:16:37.414Z,102535.30
2019-04-21T01:19:01.938Z,102535.70
2019-04-21T01:21:14.040Z,102534.30
2019-04-21T01:23:42.250Z,102534.73
2019-04-21T01:26:28.623Z,102531.23
2019-04-21T01:29:00.080Z,102528.06
2019-04-21T01:31:36.623Z,102525.83
2019-04-21T01:34:08.404Z,102527.76
2019-04-21T01:36:35.881Z,102529.86
2019-04-21T01:39:18.105Z,102525.21
2019-04-21T01:41:43.105Z,102522.23
2019-04-21T01:44:07.443Z,102516.00
2019-04-21T01:46:33.963Z,102510.83
2019-04-21T01:49:06.764Z,102510.66
2019-04-21T01:52:02.922Z,102510.66
2019-04-21T01:54:33.250Z,102509.64
2019-04-21T01:57:02.112Z,102507.70
2019-04-21T01:59:26.857Z,102507.31
2019-04-21T02:02:08.109Z,102503.45
2019-04-21T02:04:41.870Z,102508.66
2019-04-21T02:07:10.248Z,102503.67
2019-04-21T02:10:00.810Z,102501.34
2019-04-21T02:12:13.407Z,102496.39
2019-04-21T02:14:50.500Z,102494.20
2019-04-21T02:17:17.354Z,102489.84
2019-04-21T02:19:45.102Z,102486.09
2019-04-21T02:22:19.236Z,102486.09
2019-04-21T02:27:19.164Z,102480.30
2019-04-21T02:29:47.161Z,102477.59
2019-04-21T02:32:24.757Z,102476.09
2019-04-21T02:35:12.390Z,102473.78
2019-04-21T02:40:04.967Z,102468.52
2019-04-21T02:42:37.706Z,102469.99
2019-04-21T02:45:09.196Z,102462.62
2019-04-21T02:47:48.615Z,102460.34
2019-04-21T02:50:13.836Z,102461.59
2019-04-21T02:52:53.915Z,102458.64
2019-04-21T02:55:10.866Z,102466.41
2019-04-21T02:57:43.466Z,102466.41
2019-04-21T03:00:28.957Z,102464.73
2019-04-21T03:03:06.976Z,102455.94
2019-04-21T03:05:45.426Z,102455.42
2019-04-21T03:08:18.754Z,102448.84
2019-04-21T03:10:53.514Z,102429.19
2019-04-21T03:13:31.680Z,102429.19
2019-04-21T03:15:59.886Z,102432.53
2019-04-21T03:18:28.037Z,102427.45
2019-04-21T03:21:00.249Z,102423.78
2019-04-21T03:23:29.808Z,102423.78
2019-04-21T03:25:52.000Z,102423.38
2019-04-21T03:28:30.578Z,102418.96
2019-04-21T03:31:32.116Z,102426.92
2019-04-21T03:34:18.289Z,102412.44
2019-04-21T03:36:37.992Z,102418.94
2019-04-21T03:43:44.222Z,102407.44
2019-04-21T03:46:05.831Z,102408.66
2019-04-21T03:48:45.554Z,102404.05
2019-04-21T03:51:15.979Z,102397.41
2019-04-21T03:53:41.957Z,102401.55
2019-04-21T03:56:14.862Z,102410.30
2019-04-21T03:58:54.180Z,102408.84
2019-04-21T04:06:45.002Z,102415.99
2019-04-21T04:09:21.238Z,102416.78
2019-04-21T04:11:58.730Z,102416.78
2019-04-21T04:14:26.636Z,102414.44
2019-04-21T04:16:59.116Z,102413.89
2019-04-21T04:19:30.064Z,102414.67
2019-04-21T04:24:33.957Z,102404.56
2019-04-21T04:26:55.228Z,102404.56
2019-04-21T04:29:26.332Z,102396.51
2019-04-21T04:31:47.595Z,102396.51
2019-04-21T04:34:47.731Z,102399.81
2019-04-21T04:37:05.415Z,102402.05
2019-04-21T04:39:42.881Z,102399.77
2019-04-21T04:44:54.268Z,102405.39
2019-04-21T04:52:31.279Z,102385.38
2019-04-21T04:54:55.838Z,102391.27
2019-04-21T04:59:53.964Z,102398.60
2019-04-21T05:02:27.766Z,102396.48
2019-04-21T05:04:56.443Z,102396.48
2019-04-21T05:07:47.817Z,102397.48
2019-04-21T05:09:58.199Z,102391.17
2019-04-21T05:12:22.636Z,102391.95
2019-04-21T05:17:37.912Z,102382.96
2019-04-21T05:20:08.756Z,102380.39
2019-04-21T05:24:52.432Z,102386.72
2019-04-21T05:27:29.455Z,102378.33
2019-04-21T05:30:19.155Z,102380.79
2019-04-21T05:32:46.212Z,102378.06
2019-04-21T05:35:24.846Z,102371.07
2019-04-21T05:37:47.312Z,102372.67
2019-04-21T05:40:19.573Z,102369.30
2019-04-21T05:42:52.535Z,102374.16
2019-04-21T05:48:11.611Z,102362.17
2019-04-21T05:50:32.427Z,102356.76
2019-04-21T05:53:00.709Z,102360.79
2019-04-21T05:55:51.749Z,102357.66
2019-04-21T05:58:02.659Z,102358.42
2019-04-21T06:01:06.337Z,102364.03
2019-04-21T06:03:15.174Z,102363.60
2019-04-21T06:05:53.506Z,102354.45
2019-04-21T06:08:13.180Z,102358.90
2019-04-21T06:10:47.710Z,102351.84
2019-04-21T06:13:18.743Z,102349.09
2019-04-21T06:15:49.972Z,102340.30
2019-04-21T06:18:21.738Z,102340.70
2019-04-21T06:20:49.216Z,102341.86
2019-04-21T06:23:20.991Z,102338.06
2019-04-21T06:26:19.842Z,102335.09
2019-04-21T06:28:28.419Z,102330.23
2019-04-21T06:31:05.495Z,102326.80
2019-04-21T06:36:31.959Z,102317.45
2019-04-21T06:41:32.707Z,102320.56
2019-04-21T06:44:09.382Z,102312.93
2019-04-21T06:46:35.485Z,102312.18
2019-04-21T06:49:02.617Z,102310.63
2019-04-21T06:51:35.775Z,102310.54
2019-04-21T06:54:09.551Z,102309.44
2019-04-21T06:56:45.976Z,102313.97
2019-04-21T06:59:21.126Z,102307.68
2019-04-21T07:01:45.608Z,102304.19
2019-04-21T07:04:18.513Z,102302.73
2019-04-21T07:06:42.650Z,102305.22
2019-04-21T07:09:20.979Z,102304.87
2019-04-21T07:11:44.495Z,102297.19
2019-04-21T07:14:25.858Z,102294.14
2019-04-21T07:16:46.341Z,102296.58
2019-04-21T07:19:27.854Z,102289.59
2019-04-21T07:21:51.303Z,102283.58
2019-04-21T07:24:44.086Z,102272.67
2019-04-21T07:27:03.971Z,102278.48
2019-04-21T07:29:39.508Z,102277.27
2019-04-21T07:32:11.650Z,102273.80
2019-04-21T07:34:38.392Z,102271.72
2019-04-21T07:37:13.920Z,102272.03
2019-04-21T07:39:40.586Z,102268.50
2019-04-21T07:42:09.052Z,102269.56
2019-04-21T07:44:37.961Z,102273.41
2019-04-21T07:47:17.113Z,102261.38
2019-04-21T07:49:53.168Z,102257.02
2019-04-21T07:52:28.264Z,102249.20
2019-04-21T07:55:08.002Z,102246.87
2019-04-21T07:57:18.744Z,102242.02
2019-04-21T08:00:06.483Z,102246.02
2019-04-21T08:02:22.389Z,102244.04
2019-04-21T08:05:02.870Z,102241.56
2019-04-21T08:09:57.027Z,102241.09
2019-04-21T08:12:25.595Z,102243.89
2019-04-21T08:15:00.134Z,102242.16
2019-04-21T08:17:34.865Z,102243.30
2019-04-21T08:19:53.637Z,102245.70
2019-04-21T08:22:32.113Z,102239.80
2019-04-21T08:25:06.945Z,102242.45
2019-04-21T08:27:35.409Z,102240.78
2019-04-21T08:30:04.978Z,102246.27
2019-04-21T08:32:46.604Z,102244.16
2019-04-21T08:35:34.075Z,102245.78
2019-04-21T08:37:37.069Z,102239.71
2019-04-21T08:40:14.086Z,102236.16
2019-04-21T08:42:38.268Z,102238.27
2019-04-21T08:45:07.853Z,102238.16
2019-04-21T08:47:39.852Z,102230.39
2019-04-21T08:50:11.847Z,102230.20
2019-04-21T08:55:19.621Z,102223.44
2019-04-21T08:58:03.292Z,102229.61
2019-04-21T09:00:26.102Z,102231.72
2019-04-21T09:02:55.885Z,102230.22
2019-04-21T09:05:26.173Z,102226.61
2019-04-21T09:07:57.370Z,102225.68
2019-04-21T09:10:28.122Z,102224.59
2019-04-21T09:12:58.936Z,102221.09
2019-04-21T09:15:32.084Z,102220.94
2019-04-21T09:17:53.613Z,102217.77
2019-04-21T09:20:46.018Z,102221.27
2019-04-21T09:23:11.409Z,102217.14
2019-04-21T09:25:48.306Z,102212.94
2019-04-21T09:28:11.192Z,102213.78
2019-04-21T09:30:26.361Z,102208.20
2019-04-21T09:32:59.841Z,102208.73
2019-04-21T09:35:31.420Z,102204.21
2019-04-21T09:38:11.257Z,102200.05
2019-04-21T09:40:37.296Z,102196.84
2019-04-21T09:43:04.737Z,102191.86
2019-04-21T09:45:30.822Z,102187.53
2019-04-21T09:48:06.177Z,102185.22
2019-04-21T09:50:34.543Z,102188.85
2019-04-21T09:53:14.557Z,102180.48
2019-04-21T09:55:43.971Z,102175.70
2019-04-21T09:58:18.497Z,102172.22
2019-04-21T10:00:45.745Z,102177.02
2019-04-21T10:03:11.970Z,102167.53
2019-04-21T10:05:38.481Z,102160.69
2019-04-21T10:08:08.182Z,102159.74
2019-04-21T10:10:36.851Z,102152.83
2019-04-21T10:13:05.244Z,102145.75
2019-04-21T10:15:33.629Z,102152.11
2019-04-21T10:18:15.137Z,102141.39
2019-04-21T10:20:44.776Z,102140.83
2019-04-21T10:23:15.711Z,102141.00
2019-04-21T10:25:48.915Z,102129.70
2019-04-21T10:28:28.774Z,102127.00
2019-04-21T10:31:02.638Z,102124.91
2019-04-21T10:36:44.871Z,102111.68
2019-04-21T10:39:19.884Z,102103.75
2019-04-21T10:41:53.281Z,102110.27
2019-04-21T10:44:25.237Z,102100.44
2019-04-21T10:46:56.660Z,102097.55
2019-04-21T10:52:57.010Z,102088.94
2019-04-21T10:55:44.691Z,102086.12
2019-04-21T10:58:08.711Z,102085.23
2019-04-21T11:00:39.841Z,102085.13
2019-04-21T11:03:26.980Z,102081.95
2019-04-21T11:05:56.990Z,102074.93
2019-04-21T11:08:32.568Z,102079.25
2019-04-21T11:10:56.467Z,102072.09
2019-04-21T11:13:30.600Z,102061.29
2019-04-21T11:15:59.378Z,102055.80
2019-04-21T11:18:30.071Z,102058.28
2019-04-21T11:20:58.975Z,102048.83
2019-04-21T11:23:27.353Z,102045.48
2019-04-21T11:25:55.834Z,102050.09
2019-04-21T11:28:31.639Z,102045.00
2019-04-21T11:31:00.580Z,102039.91
2019-04-21T11:33:29.154Z,102041.77
2019-04-21T11:35:59.350Z,102039.06
2019-04-21T11:39:00.761Z,102037.94
2019-04-21T11:41:19.424Z,102031.16
2019-04-21T11:43:48.827Z,102035.62
2019-04-21T11:46:18.531Z,102032.28
2019-04-21T11:48:48.267Z,102027.61
2019-04-21T11:51:17.789Z,102025.61
2019-04-21T11:53:46.595Z,102016.37
2019-04-21T11:56:15.040Z,102017.89
2019-04-21T11:58:43.915Z,102020.63
2019-04-21T12:01:13.744Z,102016.13
2019-04-21T12:03:42.294Z,102013.75
2019-04-21T12:06:19.514Z,102009.03
2019-04-21T12:08:51.504Z,102005.11
2019-04-21T12:11:21.048Z,102010.98
2019-04-21T12:13:49.950Z,101997.45
2019-04-21T12:16:19.054Z,101993.80
2019-04-21T12:18:47.500Z,101990.18
2019-04-21T12:21:32.028Z,101990.55
2019-04-21T12:23:52.878Z,101985.91
2019-04-21T12:26:32.264Z,101982.41
2019-04-21T12:29:03.917Z,101979.50
2019-04-21T12:31:49.825Z,101978.47
2019-04-21T12:34:19.462Z,101973.15
2019-04-21T12:36:48.747Z,101975.05
2019-04-21T12:39:21.184Z,101968.73
2019-04-21T12:41:50.767Z,101965.64
2019-04-21T12:44:20.535Z,101955.52
2019-04-21T12:46:53.945Z,101956.17
2019-04-21T12:49:22.404Z,101951.84
2019-04-21T12:51:51.537Z,101947.28
2019-04-21T12:54:23.821Z,101938.84
2019-04-21T12:56:53.653Z,101939.71
2019-04-21T12:59:24.651Z,101937.23
2019-04-21T13:01:53.033Z,101931.05
2019-04-21T13:04:23.934Z,101926.91
2019-04-21T13:06:52.274Z,101918.52
2019-04-21T13:09:22.126Z,101922.43
2019-04-21T13:11:59.376Z,101909.33
2019-04-21T13:14:29.511Z,101910.21
2019-04-21T13:16:59.355Z,101907.78
2019-04-21T13:19:29.288Z,101894.47
2019-04-21T13:21:58.251Z,101888.81
2019-04-21T13:24:26.649Z,101889.12
2019-04-21T13:26:58.479Z,101893.05
2019-04-21T13:29:32.309Z,101888.23
2019-04-21T13:32:06.573Z,101878.45
2019-04-21T13:34:35.927Z,101873.84
2019-04-21T13:37:05.738Z,101869.61
2019-04-21T13:40:19.492Z,101866.81
2019-04-21T13:42:30.119Z,101866.02
2019-04-21T13:44:56.226Z,101860.88
2019-04-21T13:47:24.799Z,101859.50
2019-04-21T13:49:56.061Z,101862.23
2019-04-21T13:52:24.709Z,101857.52
2019-04-21T13:54:53.790Z,101850.08
2019-04-21T13:57:22.721Z,101854.36
2019-04-21T13:59:51.393Z,101850.57
2019-04-21T14:02:20.729Z,101849.67
2019-04-21T14:04:49.691Z,101841.29
2019-04-21T14:07:18.459Z,101849.36
2019-04-21T14:09:55.280Z,101846.11
2019-04-21T14:12:17.504Z,101838.91
2019-04-21T14:14:46.405Z,101836.48
2019-04-21T14:17:15.103Z,101829.41
2019-04-21T14:19:43.615Z,101827.34
2019-04-21T14:22:13.984Z,101820.25
2019-04-21T14:24:43.785Z,101824.52
2019-04-21T14:27:12.317Z,101808.84
2019-04-21T14:29:41.750Z,101806.91
2019-04-21T14:32:11.911Z,101805.89
2019-04-21T14:34:40.301Z,101805.25
2019-04-21T14:37:08.941Z,101806.34
2019-04-21T14:39:49.514Z,101798.31
2019-04-21T14:42:08.454Z,101803.16
2019-04-21T14:44:38.749Z,101794.02
2019-04-21T14:47:11.145Z,101786.18
2019-04-21T14:49:47.146Z,101787.38
2019-04-21T14:52:17.277Z,101785.29
2019-04-21T14:54:48.835Z,101790.44
2019-04-21T14:57:18.839Z,101784.87
2019-04-21T14:59:48.974Z,101778.35
2019-04-21T15:02:18.063Z,101781.22
2019-04-21T15:04:46.613Z,101774.88
2019-04-21T15:07:17.088Z,101771.17
2019-04-21T15:09:46.438Z,101766.81
2019-04-21T15:12:16.211Z,101770.52
2019-04-21T15:14:44.909Z,101766.67
2019-04-21T15:17:15.854Z,101764.09
2019-04-21T15:19:54.050Z,101768.33
2019-04-21T15:22:14.524Z,101763.22
2019-04-21T15:24:44.281Z,101762.23
2019-04-21T15:27:18.913Z,101764.45
2019-04-21T15:29:46.921Z,101756.80
2019-04-21T15:32:16.914Z,101759.14
2019-04-21T15:34:48.202Z,101750.33
2019-04-21T15:37:17.877Z,101756.03
2019-04-21T15:39:48.800Z,101748.80
2019-04-21T15:42:16.805Z,101743.88
2019-04-21T15:44:45.443Z,101742.53
2019-04-21T15:47:15.903Z,101744.75
2019-04-21T15:50:00.880Z,101739.11
2019-04-21T15:52:25.749Z,101736.45
2019-04-21T15:55:03.157Z,101739.94
2019-04-21T15:57:34.002Z,101732.00
2019-04-21T16:00:08.746Z,101738.65
2019-04-21T16:02:37.851Z,101730.02
2019-04-21T16:05:10.887Z,101733.97
2019-04-21T16:07:40.351Z,101734.27
2019-04-21T16:10:26.528Z,101725.72
2019-04-21T16:12:43.698Z,101730.44
2019-04-21T16:17:55.394Z,101721.09
2019-04-21T16:20:25.798Z,101723.55
2019-04-21T16:22:54.943Z,101725.33
2019-04-21T16:25:23.504Z,101720.84
2019-04-21T16:27:53.266Z,101722.16
2019-04-21T16:30:23.835Z,101713.14
2019-04-21T16:32:52.438Z,101716.48
2019-04-21T16:35:25.171Z,101717.16
2019-04-21T16:37:55.282Z,101718.33
2019-04-21T16:40:23.437Z,101713.18
2019-04-21T16:42:54.271Z,101710.37
2019-04-21T16:45:25.268Z,101708.48
2019-04-21T16:47:55.552Z,101705.36
2019-04-21T16:50:27.833Z,101704.03
2019-04-21T16:52:59.601Z,101702.34
2019-04-21T16:55:42.409Z,101702.34
2019-04-21T16:58:19.762Z,101709.41
2019-04-21T17:00:57.551Z,101700.36
2019-04-21T17:03:19.022Z,101698.73
2019-04-21T17:05:48.130Z,101697.02
2019-04-21T17:08:19.792Z,101696.89
2019-04-21T17:11:00.384Z,101696.92
2019-04-21T17:13:20.240Z,101697.91
2019-04-21T17:16:10.405Z,101701.93
2019-04-21T17:18:39.491Z,101701.19
2019-04-21T17:20:57.649Z,101695.91
2019-04-21T17:23:25.273Z,101696.02
2019-04-21T17:25:55.134Z,101698.95
2019-04-21T17:28:25.691Z,101696.15
2019-04-21T17:30:58.140Z,101699.69
2019-04-21T17:33:28.018Z,101698.27
2019-04-21T17:35:54.793Z,101699.38
2019-04-21T17:38:25.866Z,101710.89
2019-04-21T17:40:53.861Z,101709.30
2019-04-21T17:43:23.761Z,101704.90
2019-04-21T17:45:53.211Z,101710.89
2019-04-21T17:48:25.091Z,101707.17
2019-04-21T17:50:59.158Z,101708.38
2019-04-21T17:53:38.264Z,101699.14
2019-04-21T17:56:26.147Z,101703.33
2019-04-21T17:58:53.577Z,101707.45
2019-04-21T18:01:32.065Z,101707.31
2019-04-21T18:03:58.527Z,101706.97
2019-04-21T18:06:20.966Z,101704.50
2019-04-21T18:08:54.838Z,101704.91
2019-04-21T18:11:18.112Z,101706.78
2019-04-21T18:13:47.280Z,101704.11
2019-04-21T18:16:26.752Z,101709.63
2019-04-21T18:18:46.627Z,101708.31
2019-04-21T18:21:41.343Z,101709.81
2019-04-21T18:24:19.413Z,101712.14
2019-04-21T18:26:52.110Z,101714.95
2019-04-21T18:29:19.193Z,101712.91
2019-04-21T18:31:54.184Z,101713.02
2019-04-21T18:34:42.855Z,101716.25
2019-04-21T18:37:16.435Z,101717.20
2019-04-21T18:40:18.790Z,101718.91
2019-04-21T18:43:15.617Z,101721.99
2019-04-21T18:45:53.334Z,101725.71
2019-04-21T18:48:09.444Z,101730.26
2019-04-21T18:50:55.141Z,101725.49
2019-04-21T18:53:39.910Z,101729.61
2019-04-21T18:55:58.254Z,101738.66
2019-04-21T18:58:22.278Z,101743.66
2019-04-21T19:00:53.025Z,101736.43
2019-04-21T19:03:28.150Z,101734.00
2019-04-21T19:05:56.960Z,101736.31
2019-04-21T19:08:38.853Z,101735.91
2019-04-21T19:11:14.848Z,101730.64
2019-04-21T19:14:17.385Z,101738.84
2019-04-21T19:16:34.675Z,101730.45
2019-04-21T19:19:32.811Z,101731.09
2019-04-21T19:21:24.469Z,101733.27
2019-04-21T19:24:10.750Z,101735.02
2019-04-21T19:26:49.735Z,101729.58
2019-04-21T19:29:16.361Z,101732.83
2019-04-21T19:31:39.909Z,101731.03
2019-04-21T19:33:59.452Z,101725.73
2019-04-21T19:36:21.568Z,101724.98
2019-04-21T19:38:59.664Z,101721.73
2019-04-21T19:41:32.487Z,101721.69
2019-04-21T19:44:13.645Z,101715.53
2019-04-21T19:46:38.295Z,101718.95
2019-04-21T19:49:22.797Z,101712.72
2019-04-21T19:51:36.470Z,101717.27
2019-04-21T19:54:03.784Z,101708.22
2019-04-21T19:56:26.314Z,101711.11
2019-04-21T19:58:57.048Z,101709.73
2019-04-21T20:01:25.580Z,101715.55
2019-04-21T20:03:57.881Z,101716.25
2019-04-21T20:06:39.264Z,101715.55
2019-04-21T20:09:13.819Z,101719.19
2019-04-21T20:11:41.979Z,101719.89
2019-04-21T20:14:44.528Z,101720.53
2019-04-21T20:16:45.544Z,101721.13
2019-04-21T20:19:02.350Z,101719.89
2019-04-21T20:21:26.833Z,101717.91
2019-04-21T20:24:02.482Z,101715.19
2019-04-21T20:26:36.775Z,101716.88
2019-04-21T20:29:15.488Z,101713.00
2019-04-21T20:31:47.845Z,101710.48
2019-04-21T20:34:31.979Z,101706.00
2019-04-21T20:37:00.364Z,101702.66
2019-04-21T20:39:16.518Z,101701.87
2019-04-21T20:41:48.305Z,101702.99
2019-04-21T20:44:29.660Z,101693.48
2019-04-21T20:46:55.481Z,101699.50
2019-04-21T20:49:21.736Z,101694.54
2019-04-21T20:52:08.121Z,101692.20
2019-04-21T20:54:33.769Z,101694.75
2019-04-21T20:57:03.241Z,101699.92
2019-04-21T20:59:25.368Z,101698.14
2019-04-21T21:02:05.511Z,101698.29
2019-04-21T21:04:30.085Z,101689.45
2019-04-21T21:07:20.603Z,101698.90
2019-04-21T21:09:41.367Z,101694.39
2019-04-21T21:12:22.622Z,101694.33
2019-04-21T21:14:36.464Z,101696.28
2019-04-21T21:17:26.630Z,101691.13
2019-04-21T21:19:45.658Z,101684.89
2019-04-21T21:22:10.959Z,101678.44
2019-04-21T21:24:53.540Z,101685.84
2019-04-21T21:27:29.166Z,101681.88
2019-04-21T21:29:56.695Z,101684.39
2019-04-21T21:32:32.155Z,101689.38
2019-04-21T21:35:13.071Z,101680.15
2019-04-21T21:37:42.800Z,101685.13
2019-04-21T21:40:21.863Z,101685.48
2019-04-21T21:42:35.327Z,101689.83
2019-04-21T21:45:08.736Z,101684.94
2019-04-21T21:47:57.996Z,101683.96
2019-04-21T21:50:11.554Z,101688.30
2019-04-21T21:52:50.185Z,101687.48
2019-04-21T21:55:21.521Z,101683.19
2019-04-21T21:58:01.069Z,101678.63
2019-04-21T22:00:37.012Z,101684.34
2019-04-21T22:03:16.361Z,101678.11
2019-04-21T22:05:46.528Z,101675.02
2019-04-21T22:08:06.824Z,101676.40
2019-04-21T22:10:43.302Z,101678.23
2019-04-21T22:13:14.702Z,101683.58
2019-04-21T22:15:49.337Z,101683.44
2019-04-21T22:18:33.350Z,101680.86
2019-04-21T22:21:02.262Z,101675.98
2019-04-21T22:23:34.866Z,101680.28
2019-04-21T22:25:49.299Z,101674.12
2019-04-21T22:28:17.864Z,101672.43
2019-04-21T22:30:50.872Z,101676.73
2019-04-21T22:33:22.873Z,101676.16
2019-04-21T22:35:59.255Z,101673.89
2019-04-21T22:38:38.666Z,101673.56
2019-04-21T22:41:10.072Z,101670.47
2019-04-21T22:43:44.376Z,101666.48
2019-04-21T22:46:14.037Z,101673.66
2019-04-21T22:48:53.204Z,101672.80
2019-04-21T22:51:23.737Z,101670.89
2019-04-21T22:53:50.361Z,101666.83
2019-04-21T22:56:23.626Z,101665.27
2019-04-21T22:58:48.298Z,101665.59
2019-04-21T23:01:28.539Z,101666.36
2019-04-21T23:03:55.592Z,101664.11
2019-04-21T23:06:25.481Z,101666.82
2019-04-21T23:08:51.202Z,101664.92
2019-04-21T23:11:20.205Z,101661.80
2019-04-21T23:13:55.671Z,101665.28
2019-04-21T23:16:26.150Z,101667.48
2019-04-21T23:19:11.467Z,101659.52
2019-04-21T23:21:51.463Z,101658.09
2019-04-21T23:24:14.860Z,101657.85
2019-04-21T23:26:48.666Z,101659.52
2019-04-21T23:29:31.067Z,101663.28
2019-04-21T23:31:55.037Z,101657.11
2019-04-21T23:34:13.367Z,101663.89
2019-04-21T23:36:48.294Z,101664.84
2019-04-21T23:39:15.990Z,101662.56
2019-04-21T23:41:46.069Z,101666.44
2019-04-21T23:44:13.647Z,101663.42
2019-04-21T23:46:40.909Z,101665.22
2019-04-21T23:49:22.836Z,101666.69
2019-04-21T23:51:50.612Z,101665.77
2019-04-21T23:54:13.328Z,101664.67
2019-04-21T23:56:45.691Z,101666.03
2019-04-21T23:59:17.928Z,101668.19
